Dati Storici

Data ora Umidita' aria (%) Temperatura aria (°C) Rad globale (W/m²) Gonioanemometro (°) Tacoanemometro (m/s) Pioggia (mm)
07-06-2020 23:30 97.8 % 16.199 -74.77 1.768 0 0
07-06-2020 23:20 97.8 % 16.165 -34.261 3.263 0 0
07-06-2020 23:10 97.8 % 16.206 -70.75 0.395 0 0
07-06-2020 23:00 97.8 % 16.118 -68.408 2.317 0 0
07-06-2020 22:50 97.8 % 16.147 -73.544 2.968 0 0
07-06-2020 22:40 97.8 % 16.174 -75.438 1.956 0 0
07-06-2020 22:30 97.8 % 16.216 -78.315 1.021 0 0
07-06-2020 22:20 97.8 % 16.222 -74.86 1.91 0 0
07-06-2020 22:10 97.8 % 16.236 -71.447 3.287 0 0
07-06-2020 22:00 97.8 % 16.183 -74.812 2.047 0 0
07-06-2020 21:50 97.8 % 16.183 -39.852 1.389 0 0
07-06-2020 21:40 97.8 % 16.131 -75.146 3.315 0 0
07-06-2020 21:30 97.8 % 16.179 -76.918 1.961 0 0
07-06-2020 21:20 97.8 % 16.103 -77.997 2.631 0 0
07-06-2020 21:10 97.8 % 16.123 -77.798 2.381 0 0
07-06-2020 21:00 97.8 % 16.1 -78.962 3.149 0 0
07-06-2020 20:50 97.8 % 16.139 -77.629 2.062 0 0
07-06-2020 20:40 97.8 % 16.09 -77.177 2.38 0 0
07-06-2020 20:30 97.8 % 16.087 -81.247 4.454 0 0
07-06-2020 20:20 97.9 % 16.093 -79.96 3.05 0 0

I dati sono presentati in modo automatico a scopo informativo. In seguito a verifica i dati possono subire modifiche o essere invalidati e non riportati negli archivi definitivi.